sensor_id;sensor_type;location;lat;lon;timestamp;pressure;altitude;pressure_sealevel;temperature;humidity
46476;BME280;53376;51.114;14.738;2023-02-03T17:54:58;98150.91;;;6.05;70.13
46476;BME280;53376;51.114;14.738;2023-02-03T17:57:30;98144.72;;;6.06;70.37
46476;BME280;53376;51.114;14.738;2023-02-03T18:00:00;98140.34;;;6.05;70.28
46476;BME280;53376;51.114;14.738;2023-02-03T18:02:38;98155.28;;;6.06;70.66
46476;BME280;53376;51.114;14.738;2023-02-03T18:05:17;98156.09;;;6.06;70.59
46476;BME280;53376;51.114;14.738;2023-02-03T18:07:44;98163.09;;;6.07;70.90
46476;BME280;53376;51.114;14.738;2023-02-03T18:24:21;98189.75;;;6.01;71.85
46476;BME280;53376;51.114;14.738;2023-02-03T18:26:50;98185.38;;;6.02;71.97
46476;BME280;53376;51.114;14.738;2023-02-03T18:29:30;98199.47;;;6.01;72.18
46476;BME280;53376;51.114;14.738;2023-02-03T18:31:57;98181.09;;;5.99;72.09
46476;BME280;53376;51.114;14.738;2023-02-03T18:34:38;98187.31;;;5.96;72.38
46476;BME280;53376;51.114;14.738;2023-02-03T18:37:07;98171.50;;;5.96;72.79
46476;BME280;53376;51.114;14.738;2023-02-03T18:39:46;98182.19;;;5.93;72.69
46476;BME280;53376;51.114;14.738;2023-02-03T18:49:02;98201.56;;;5.92;72.75
46476;BME280;53376;51.114;14.738;2023-02-03T18:51:42;98191.00;;;5.92;72.63
46476;BME280;53376;51.114;14.738;2023-02-03T18:54:11;98185.72;;;5.92;72.60
46476;BME280;53376;51.114;14.738;2023-02-03T18:56:57;98193.66;;;5.92;72.63
46476;BME280;53376;51.114;14.738;2023-02-03T18:59:31;98198.91;;;5.92;72.70
46476;BME280;53376;51.114;14.738;2023-02-03T19:02:11;98198.91;;;5.92;72.39
46476;BME280;53376;51.114;14.738;2023-02-03T19:04:38;98194.56;;;5.91;72.45
46476;BME280;53376;51.114;14.738;2023-02-03T19:17:50;98174.25;;;5.93;72.22
46476;BME280;53376;51.114;14.738;2023-02-03T19:20:30;98186.66;;;5.91;71.96
46476;BME280;53376;51.114;14.738;2023-02-03T19:22:57;98191.16;;;5.89;71.93
46476;BME280;53376;51.114;14.738;2023-02-03T19:25:38;98200.00;;;5.88;72.05
46476;BME280;53376;51.114;14.738;2023-02-03T19:28:05;98191.94;;;5.91;72.05
46476;BME280;53376;51.114;14.738;2023-02-03T19:41:59;98191.28;;;5.86;71.60
46476;BME280;53376;51.114;14.738;2023-02-03T19:44:39;98186.00;;;5.86;71.27
46476;BME280;53376;51.114;14.738;2023-02-03T19:47:06;98181.81;;;5.82;71.33
46476;BME280;53376;51.114;14.738;2023-02-03T19:49:46;98190.53;;;5.84;71.59
46476;BME280;53376;51.114;14.738;2023-02-03T19:52:13;98182.59;;;5.84;71.49
46476;BME280;53376;51.114;14.738;2023-02-03T19:54:54;98202.00;;;5.83;71.58
46476;BME280;53376;51.114;14.738;2023-02-03T19:57:23;98202.75;;;5.85;71.57
46476;BME280;53376;51.114;14.738;2023-02-03T20:10:33;98206.38;;;5.82;71.64
46476;BME280;53376;51.114;14.738;2023-02-03T20:13:15;98206.63;;;5.78;71.53
46476;BME280;53376;51.114;14.738;2023-02-03T20:15:42;98204.81;;;5.78;71.75
46476;BME280;53376;51.114;14.738;2023-02-03T20:18:22;98208.31;;;5.79;72.18
46476;BME280;53376;51.114;14.738;2023-02-03T20:20:49;98214.53;;;5.78;72.09
46476;BME280;53376;51.114;14.738;2023-02-03T20:23:30;98222.47;;;5.76;72.35
46476;BME280;53376;51.114;14.738;2023-02-03T20:36:14;98216.22;;;5.79;72.71
46476;BME280;53376;51.114;14.738;2023-02-03T20:38:54;98219.81;;;5.78;72.63
46476;BME280;53376;51.114;14.738;2023-02-03T20:41:34;98214.53;;;5.78;72.86
46476;BME280;53376;51.114;14.738;2023-02-03T20:44:01;98219.81;;;5.78;72.86
46476;BME280;53376;51.114;14.738;2023-02-03T20:46:41;98225.13;;;5.76;73.03
46476;BME280;53376;51.114;14.738;2023-02-03T20:49:10;98226.91;;;5.76;73.00
46476;BME280;53376;51.114;14.738;2023-02-03T21:02:23;98227.91;;;5.73;73.11
46476;BME280;53376;51.114;14.738;2023-02-03T21:05:23;98220.06;;;5.72;73.15
46476;BME280;53376;51.114;14.738;2023-02-03T21:07:57;98226.19;;;5.72;73.17
46476;BME280;53376;51.114;14.738;2023-02-03T21:10:37;98224.53;;;5.70;73.27
46476;BME280;53376;51.114;14.738;2023-02-03T21:13:17;98224.53;;;5.70;73.29
46476;BME280;53376;51.114;14.738;2023-02-03T21:15:59;98214.78;;;5.72;73.48
46476;BME280;53376;51.114;14.738;2023-02-03T21:18:34;98229.81;;;5.70;73.48
46476;BME280;53376;51.114;14.738;2023-02-03T21:31:37;98220.38;;;5.64;73.78
46476;BME280;53376;51.114;14.738;2023-02-03T21:34:26;98222.16;;;5.63;73.66
46476;BME280;53376;51.114;14.738;2023-02-03T21:37:07;98221.44;;;5.60;73.72
46476;BME280;53376;51.114;14.738;2023-02-03T21:40:19;98228.44;;;5.61;73.88
46476;BME280;53376;51.114;14.738;2023-02-03T21:42:54;98231.00;;;5.62;73.82
46476;BME280;53376;51.114;14.738;2023-02-03T21:56:16;98258.28;;;5.61;73.98
46476;BME280;53376;51.114;14.738;2023-02-03T21:59:05;98253.94;;;5.60;73.86
46476;BME280;53376;51.114;14.738;2023-02-03T22:01:46;98241.69;;;5.59;74.16
46476;BME280;53376;51.114;14.738;2023-02-03T22:04:27;98243.38;;;5.60;74.28
46476;BME280;53376;51.114;14.738;2023-02-03T22:06:55;98253.94;;;5.60;74.18
46476;BME280;53376;51.114;14.738;2023-02-03T22:09:36;98255.78;;;5.58;74.45
46476;BME280;53376;51.114;14.738;2023-02-03T22:22:29;98279.53;;;5.58;74.49
46476;BME280;53376;51.114;14.738;2023-02-03T22:25:08;98269.88;;;5.57;74.58
46476;BME280;53376;51.114;14.738;2023-02-03T22:27:48;98283.16;;;5.56;75.00
46476;BME280;53376;51.114;14.738;2023-02-03T22:30:18;98276.16;;;5.55;74.76
46476;BME280;53376;51.114;14.738;2023-02-03T22:32:58;98278.72;;;5.56;75.00
46476;BME280;53376;51.114;14.738;2023-02-03T22:35:25;98286.69;;;5.55;74.95
46476;BME280;53376;51.114;14.738;2023-02-03T22:38:07;98284.00;;;5.56;75.03
46476;BME280;53376;51.114;14.738;2023-02-03T22:50:49;98274.09;;;5.61;75.35
46476;BME280;53376;51.114;14.738;2023-02-03T22:53:31;98290.84;;;5.60;75.36
46476;BME280;53376;51.114;14.738;2023-02-03T22:56:11;98281.28;;;5.58;75.32
46476;BME280;53376;51.114;14.738;2023-02-03T22:58:38;98283.88;;;5.59;75.60
46476;BME280;53376;51.114;14.738;2023-02-03T23:01:18;98290.00;;;5.60;75.66
46476;BME280;53376;51.114;14.738;2023-02-03T23:03:45;98290.00;;;5.60;75.54
46476;BME280;53376;51.114;14.738;2023-02-03T23:16:36;98303.91;;;5.63;75.66
46476;BME280;53376;51.114;14.738;2023-02-03T23:19:15;98306.53;;;5.63;75.83
46476;BME280;53376;51.114;14.738;2023-02-03T23:21:55;98303.97;;;5.62;75.66
46476;BME280;53376;51.114;14.738;2023-02-03T23:24:22;98300.47;;;5.61;75.91
46476;BME280;53376;51.114;14.738;2023-02-03T23:27:02;98312.66;;;5.64;75.81
46476;BME280;53376;51.114;14.738;2023-02-03T23:29:29;98303.00;;;5.64;75.74
46476;BME280;53376;51.114;14.738;2023-02-03T23:42:46;98374.94;;;5.67;75.42
46476;BME280;53376;51.114;14.738;2023-02-03T23:45:26;98376.66;;;5.68;75.17
46476;BME280;53376;51.114;14.738;2023-02-03T23:47:53;98397.75;;;5.68;74.64
46476;BME280;53376;51.114;14.738;2023-02-03T23:50:33;98415.50;;;5.64;74.21
46476;BME280;53376;51.114;14.738;2023-02-03T23:53:00;98424.28;;;5.64;74.08
46476;BME280;53376;51.114;14.738;2023-02-03T23:55:40;98427.81;;;5.63;74.01
46476;BME280;53376;51.114;14.738;2023-02-03T23:58:09;98441.91;;;5.62;73.75
